createdAt,value
2019-04-22T00:00:06.719Z,54.88
2019-04-22T00:02:11.338Z,54.85
2019-04-22T00:04:16.233Z,55.06
2019-04-22T00:06:30.723Z,55.32
2019-04-22T00:08:35.788Z,55.65
2019-04-22T00:10:39.709Z,55.37
2019-04-22T00:12:42.285Z,54.98
2019-04-22T00:14:33.761Z,54.92
2019-04-22T00:19:01.392Z,54.81
2019-04-22T00:20:52.693Z,54.89
2019-04-22T00:22:44.398Z,54.79
2019-04-22T00:24:56.223Z,54.75
2019-04-22T00:27:00.282Z,54.70
2019-04-22T00:28:59.306Z,54.58
2019-04-22T00:30:54.887Z,54.69
2019-04-22T00:33:07.837Z,54.70
2019-04-22T00:35:13.258Z,54.72
2019-04-22T00:37:17.215Z,54.82
2019-04-22T00:39:21.376Z,54.92
2019-04-22T00:41:23.441Z,55.07
2019-04-22T00:43:25.878Z,55.11
2019-04-22T00:45:26.856Z,55.10
2019-04-22T00:47:27.979Z,54.98
2019-04-22T00:51:29.710Z,54.84
2019-04-22T00:53:30.079Z,54.89
2019-04-22T00:55:33.765Z,54.99
2019-04-22T00:57:35.527Z,54.95
2019-04-22T00:59:28.726Z,54.93
2019-04-22T01:01:41.046Z,54.91
2019-04-22T01:03:44.505Z,54.93
2019-04-22T01:05:42.222Z,54.86
2019-04-22T01:07:44.587Z,54.89
2019-04-22T01:09:46.428Z,54.95
2019-04-22T01:11:47.227Z,55.10
2019-04-22T01:13:44.241Z,55.17
2019-04-22T01:15:48.534Z,55.22
2019-04-22T01:17:52.467Z,55.30
2019-04-22T01:21:52.445Z,55.37
2019-04-22T01:23:52.209Z,55.44
2019-04-22T01:25:49.557Z,55.62
2019-04-22T01:27:48.835Z,55.66
2019-04-22T01:29:46.878Z,55.89
2019-04-22T01:31:40.018Z,55.74
2019-04-22T01:33:45.788Z,55.60
2019-04-22T01:36:04.656Z,55.36
2019-04-22T01:37:59.772Z,55.15
2019-04-22T01:40:09.894Z,55.23
2019-04-22T01:42:24.453Z,55.31
2019-04-22T01:46:18.385Z,55.03
2019-04-22T01:48:21.165Z,55.08
2019-04-22T01:50:24.065Z,55.19
2019-04-22T01:52:20.338Z,55.14
2019-04-22T01:54:31.809Z,55.28
2019-04-22T01:56:27.212Z,55.37
2019-04-22T01:58:21.842Z,55.32
2019-04-22T02:00:25.171Z,55.12
2019-04-22T02:02:30.365Z,54.90
2019-04-22T02:06:39.132Z,54.72
2019-04-22T02:08:37.886Z,54.74
2019-04-22T02:10:41.486Z,54.58
2019-04-22T02:12:41.074Z,54.70
2019-04-22T02:14:39.544Z,54.50
2019-04-22T02:16:43.169Z,54.58
2019-04-22T02:18:44.842Z,54.52
2019-04-22T02:20:42.959Z,54.48
2019-04-22T02:23:00.442Z,54.49
2019-04-22T02:24:53.899Z,54.52
2019-04-22T02:27:06.240Z,54.40
2019-04-22T02:31:16.179Z,54.43
2019-04-22T02:33:11.443Z,54.44
2019-04-22T02:36:56.482Z,54.43
2019-04-22T02:44:58.557Z,54.41
2019-04-22T02:51:16.867Z,54.58
2019-04-22T02:53:30.147Z,54.57
2019-04-22T02:55:15.490Z,54.48
2019-04-22T02:57:31.931Z,54.50
2019-04-22T02:59:27.912Z,54.69
2019-04-22T03:01:36.917Z,54.76
2019-04-22T03:03:41.800Z,54.66
2019-04-22T03:05:27.391Z,54.73
2019-04-22T03:07:25.969Z,54.73
2019-04-22T03:09:28.389Z,54.57
2019-04-22T03:13:37.803Z,54.69
2019-04-22T03:15:30.507Z,54.65
2019-04-22T03:30:08.784Z,54.95
2019-04-22T03:34:20.504Z,55.14
2019-04-22T03:35:55.730Z,55.06
2019-04-22T03:37:53.237Z,55.15
2019-04-22T03:40:07.310Z,55.06
2019-04-22T03:44:10.214Z,55.10
2019-04-22T03:45:45.816Z,54.89
2019-04-22T03:50:17.603Z,55.01
2019-04-22T03:54:12.297Z,55.08
2019-04-22T03:57:57.330Z,55.04
2019-04-22T04:00:21.567Z,54.98
2019-04-22T04:06:18.037Z,55.03
2019-04-22T04:08:21.965Z,54.97
2019-04-22T04:10:27.830Z,54.97
2019-04-22T04:12:42.141Z,55.02
2019-04-22T04:14:26.911Z,55.25
2019-04-22T04:18:26.565Z,55.23
2019-04-22T04:22:41.463Z,55.49
2019-04-22T04:24:48.156Z,55.82
2019-04-22T04:30:31.529Z,56.00
2019-04-22T04:32:51.334Z,55.91
2019-04-22T04:36:42.185Z,55.60
2019-04-22T04:38:45.710Z,55.36
2019-04-22T04:40:41.884Z,55.28
2019-04-22T04:42:47.953Z,55.33
2019-04-22T04:49:00.409Z,55.37
2019-04-22T04:51:12.254Z,55.29
2019-04-22T04:55:13.704Z,55.26
2019-04-22T04:57:17.413Z,55.09
2019-04-22T04:59:05.011Z,54.95
2019-04-22T05:02:58.397Z,55.00
2019-04-22T05:05:16.809Z,54.90
2019-04-22T05:07:09.168Z,55.04
2019-04-22T05:09:14.705Z,54.98
2019-04-22T05:13:12.328Z,55.25
2019-04-22T05:15:21.070Z,54.95
2019-04-22T05:17:15.994Z,54.92
2019-04-22T05:19:15.715Z,55.07
2019-04-22T05:21:16.334Z,54.96
2019-04-22T05:23:16.728Z,55.07
2019-04-22T05:25:19.312Z,54.93
2019-04-22T05:27:19.984Z,55.00
2019-04-22T05:29:24.516Z,55.00
2019-04-22T05:31:24.653Z,54.82
2019-04-22T05:33:21.673Z,54.78
2019-04-22T05:35:23.022Z,54.83
2019-04-22T05:37:30.932Z,55.07
2019-04-22T05:39:21.610Z,55.13
2019-04-22T05:41:31.978Z,55.03
2019-04-22T05:43:27.426Z,55.03
2019-04-22T05:45:31.415Z,55.00
2019-04-22T05:47:37.089Z,55.21
2019-04-22T05:49:29.943Z,55.22
2019-04-22T05:51:36.961Z,55.17
2019-04-22T05:53:35.605Z,55.22
2019-04-22T05:55:41.575Z,55.31
2019-04-22T05:57:40.301Z,55.22
2019-04-22T05:59:48.656Z,55.21
2019-04-22T06:01:55.040Z,55.31
2019-04-22T06:03:56.492Z,55.11
2019-04-22T06:06:00.780Z,55.42
2019-04-22T06:07:47.306Z,55.51
2019-04-22T06:09:49.253Z,55.58
2019-04-22T06:11:50.934Z,55.79
2019-04-22T06:13:51.722Z,55.87
2019-04-22T06:15:53.003Z,55.89
2019-04-22T06:18:02.996Z,55.96
2019-04-22T06:19:58.905Z,55.96
2019-04-22T06:21:55.713Z,56.22
2019-04-22T06:24:08.239Z,55.90
2019-04-22T06:26:16.158Z,55.89
2019-04-22T06:28:20.430Z,55.58
2019-04-22T06:30:09.689Z,55.79
2019-04-22T06:32:23.110Z,55.56
2019-04-22T06:36:21.011Z,55.66
2019-04-22T06:38:30.404Z,55.90
2019-04-22T06:40:24.657Z,55.88
2019-04-22T06:42:21.787Z,56.24
2019-04-22T06:46:20.420Z,55.53
2019-04-22T06:50:24.166Z,55.25
2019-04-22T06:52:22.391Z,54.77
2019-04-22T06:54:28.330Z,55.18
2019-04-22T06:56:27.746Z,55.13
2019-04-22T06:58:33.385Z,55.13
2019-04-22T07:00:32.365Z,55.49
2019-04-22T07:02:45.118Z,55.48
2019-04-22T07:04:33.770Z,55.21
2019-04-22T07:06:41.630Z,55.12
2019-04-22T07:09:07.917Z,55.17
2019-04-22T07:10:45.116Z,55.15
2019-04-22T07:12:46.961Z,55.13
2019-04-22T07:14:47.253Z,54.98
2019-04-22T07:16:44.189Z,54.96
2019-04-22T07:18:49.875Z,54.87
2019-04-22T07:20:51.096Z,54.83
2019-04-22T07:22:51.346Z,54.74
2019-04-22T07:24:55.988Z,54.62
2019-04-22T07:26:52.779Z,54.58
2019-04-22T07:28:56.446Z,54.56
2019-04-22T07:31:01.997Z,54.53
2019-04-22T07:33:14.479Z,54.46
2019-04-22T07:35:01.106Z,54.42
2019-04-22T07:37:09.537Z,46.75
2019-04-22T07:39:04.458Z,44.69
2019-04-22T07:40:59.475Z,42.47
2019-04-22T07:43:18.779Z,41.37
2019-04-22T07:45:12.047Z,43.54
2019-04-22T07:49:32.244Z,44.53
2019-04-22T07:51:15.563Z,44.04
2019-04-22T07:53:19.906Z,44.15
2019-04-22T07:55:13.392Z,44.58
2019-04-22T07:57:32.711Z,45.04
2019-04-22T07:59:26.830Z,45.23
2019-04-22T08:03:28.982Z,45.59
2019-04-22T08:07:33.083Z,45.97
2019-04-22T08:09:41.400Z,46.22
2019-04-22T08:11:50.818Z,46.49
2019-04-22T08:13:38.280Z,46.70
2019-04-22T08:15:42.026Z,46.89
2019-04-22T08:19:44.652Z,47.25
2019-04-22T08:21:42.608Z,47.32
2019-04-22T08:23:43.302Z,47.37
2019-04-22T08:25:42.622Z,47.47
2019-04-22T08:27:43.616Z,47.54
2019-04-22T08:29:53.476Z,47.62
2019-04-22T08:31:54.769Z,47.65
2019-04-22T08:34:12.069Z,47.73
2019-04-22T08:36:06.075Z,47.79
2019-04-22T08:37:57.716Z,47.48
2019-04-22T08:40:04.197Z,47.33
2019-04-22T08:41:50.967Z,47.41
2019-04-22T08:44:02.573Z,47.54
2019-04-22T08:46:06.106Z,47.63
2019-04-22T08:48:00.969Z,47.67
2019-04-22T08:50:07.761Z,47.69
2019-04-22T08:52:11.026Z,47.75
2019-04-22T08:54:11.870Z,47.83
2019-04-22T08:58:25.577Z,47.99
2019-04-22T09:00:14.717Z,48.00
2019-04-22T09:02:23.045Z,47.99
2019-04-22T09:04:14.625Z,47.99
2019-04-22T09:08:18.675Z,47.96
2019-04-22T09:10:25.253Z,47.80
2019-04-22T09:12:26.496Z,47.42
2019-04-22T09:14:26.156Z,47.39
2019-04-22T09:16:32.046Z,47.46
2019-04-22T09:18:32.941Z,47.54
2019-04-22T09:20:28.150Z,47.68
2019-04-22T09:22:29.983Z,47.77
2019-04-22T09:24:34.264Z,47.83
2019-04-22T09:26:36.040Z,47.90
2019-04-22T09:28:37.718Z,47.99
2019-04-22T09:30:41.551Z,46.57
2019-04-22T09:32:52.398Z,44.03
2019-04-22T09:34:39.845Z,40.69
2019-04-22T09:36:45.459Z,42.95
2019-04-22T09:38:43.738Z,40.46
2019-04-22T09:40:50.082Z,40.93
2019-04-22T09:42:50.489Z,38.64
2019-04-22T09:44:47.757Z,38.80
2019-04-22T09:50:57.504Z,37.89
2019-04-22T09:52:54.740Z,37.46
2019-04-22T09:55:00.183Z,36.25
2019-04-22T09:57:00.149Z,36.44
2019-04-22T09:59:13.774Z,35.72
2019-04-22T10:01:03.033Z,35.01
2019-04-22T10:03:06.847Z,35.27
2019-04-22T10:05:07.618Z,35.97
2019-04-22T10:07:13.131Z,35.03
2019-04-22T10:11:13.109Z,36.96
2019-04-22T10:13:12.849Z,37.34
2019-04-22T10:15:13.771Z,38.09
2019-04-22T10:17:15.488Z,38.81
2019-04-22T10:19:16.776Z,39.20
2019-04-22T10:21:31.838Z,39.93
2019-04-22T10:23:20.319Z,40.36
2019-04-22T10:25:28.011Z,41.15
2019-04-22T10:27:24.351Z,41.53
2019-04-22T10:29:24.671Z,41.80
2019-04-22T10:31:34.506Z,42.20
2019-04-22T10:33:23.929Z,42.69
2019-04-22T10:35:09.303Z,42.95
2019-04-22T10:37:11.273Z,43.22
2019-04-22T10:39:08.596Z,43.59
2019-04-22T10:41:10.449Z,43.82
2019-04-22T10:43:11.638Z,44.02
2019-04-22T10:45:14.465Z,44.24
2019-04-22T10:47:15.937Z,44.38
2019-04-22T10:49:18.106Z,44.71
2019-04-22T10:51:18.999Z,44.84
2019-04-22T10:53:19.941Z,45.08
2019-04-22T10:55:21.531Z,45.29
2019-04-22T10:57:23.166Z,45.47
2019-04-22T10:59:24.814Z,45.54
2019-04-22T11:01:27.545Z,45.78
2019-04-22T11:03:28.403Z,45.85
2019-04-22T11:05:30.265Z,45.91
2019-04-22T11:07:39.730Z,45.87
2019-04-22T11:09:40.471Z,45.89
2019-04-22T11:11:46.729Z,45.83
2019-04-22T11:13:37.795Z,45.95
2019-04-22T11:15:38.080Z,45.92
2019-04-22T11:17:39.735Z,45.94
2019-04-22T11:19:41.583Z,45.95
2019-04-22T11:21:44.613Z,46.04
2019-04-22T11:23:44.872Z,46.06
2019-04-22T11:25:47.836Z,46.01
2019-04-22T11:27:49.297Z,46.04
2019-04-22T11:29:49.825Z,45.98
2019-04-22T11:31:52.524Z,45.95
2019-04-22T11:33:54.337Z,45.98
2019-04-22T11:35:55.594Z,46.01
2019-04-22T11:37:57.050Z,45.91
2019-04-22T11:40:09.169Z,45.88
2019-04-22T11:42:00.493Z,45.72
2019-04-22T11:44:03.107Z,45.77
2019-04-22T11:46:05.096Z,45.79
2019-04-22T11:48:05.552Z,45.77
2019-04-22T11:50:08.067Z,45.85
2019-04-22T11:52:10.868Z,45.90
2019-04-22T11:54:10.619Z,45.87
2019-04-22T11:56:13.067Z,45.91
2019-04-22T11:58:14.773Z,45.92
2019-04-22T12:00:16.687Z,45.94
2019-04-22T12:02:18.054Z,45.98
2019-04-22T12:04:20.022Z,46.02
2019-04-22T12:06:20.225Z,45.96
2019-04-22T12:08:22.815Z,46.00
2019-04-22T12:10:33.277Z,46.03
2019-04-22T12:12:25.604Z,45.97
2019-04-22T12:14:27.749Z,45.91
2019-04-22T12:16:29.669Z,45.88
2019-04-22T12:18:31.253Z,45.91
2019-04-22T12:20:32.984Z,45.91
2019-04-22T12:22:33.914Z,45.98
2019-04-22T12:24:36.383Z,45.98
2019-04-22T12:26:37.938Z,45.99
2019-04-22T12:28:39.251Z,45.90
2019-04-22T12:30:41.515Z,45.96
2019-04-22T12:32:41.703Z,45.89
2019-04-22T12:34:43.711Z,45.90
2019-04-22T12:36:44.956Z,45.96
2019-04-22T12:38:47.471Z,45.94
2019-04-22T12:40:55.331Z,45.96
2019-04-22T12:42:51.377Z,46.02
2019-04-22T12:44:51.585Z,46.09
2019-04-22T12:46:54.324Z,46.14
2019-04-22T12:48:56.224Z,46.19
2019-04-22T12:50:58.474Z,46.07
2019-04-22T12:53:04.841Z,46.08
2019-04-22T12:54:59.828Z,46.11
2019-04-22T12:57:01.722Z,46.13
2019-04-22T12:59:03.864Z,46.18
2019-04-22T13:01:04.784Z,46.26
2019-04-22T13:03:07.269Z,46.31
2019-04-22T13:05:08.189Z,46.36
2019-04-22T13:07:09.768Z,46.34
2019-04-22T13:09:12.628Z,46.31
2019-04-22T13:11:17.965Z,46.36
2019-04-22T13:13:15.410Z,46.45
2019-04-22T13:15:16.390Z,46.50
2019-04-22T13:17:18.969Z,46.61
2019-04-22T13:19:22.599Z,46.65
2019-04-22T13:21:22.562Z,46.73
2019-04-22T13:23:22.955Z,46.71
2019-04-22T13:25:27.010Z,46.78
2019-04-22T13:27:26.883Z,46.87
2019-04-22T13:29:27.982Z,46.95
2019-04-22T13:31:30.881Z,46.98
2019-04-22T13:33:32.705Z,47.05
2019-04-22T13:35:33.887Z,47.16
2019-04-22T13:37:35.022Z,47.16
2019-04-22T13:39:36.760Z,47.40
2019-04-22T13:41:46.331Z,47.31
2019-04-22T13:43:40.936Z,47.31
2019-04-22T13:45:41.130Z,47.45
2019-04-22T13:48:06.357Z,47.51
2019-04-22T13:50:21.873Z,47.66
2019-04-22T13:52:20.745Z,47.54
2019-04-22T13:54:44.541Z,47.59
2019-04-22T13:56:15.554Z,47.64
2019-04-22T13:58:02.653Z,47.65
2019-04-22T13:59:57.650Z,47.61
2019-04-22T14:01:56.475Z,47.55
2019-04-22T14:03:58.749Z,47.49
2019-04-22T14:06:00.686Z,47.50
2019-04-22T14:08:02.598Z,47.52
2019-04-22T14:10:02.677Z,47.44
2019-04-22T14:12:06.196Z,47.46
2019-04-22T14:14:06.890Z,47.43
2019-04-22T14:16:08.850Z,47.64
2019-04-22T14:18:08.945Z,49.05
2019-04-22T14:20:10.918Z,47.83
2019-04-22T14:22:13.680Z,48.14
2019-04-22T14:24:14.309Z,48.19
2019-04-22T14:26:15.547Z,46.32
2019-04-22T14:28:19.360Z,46.66
2019-04-22T14:30:18.901Z,46.69
2019-04-22T14:32:25.361Z,47.03
2019-04-22T14:34:22.062Z,47.15
2019-04-22T14:36:23.648Z,47.04
2019-04-22T14:38:25.920Z,47.37
2019-04-22T14:40:28.689Z,47.10
2019-04-22T14:42:52.229Z,47.15
2019-04-22T14:45:20.561Z,48.21
2019-04-22T14:47:03.488Z,48.40
2019-04-22T14:49:01.327Z,47.59
2019-04-22T14:50:55.908Z,47.78
2019-04-22T14:52:58.166Z,47.52
2019-04-22T14:54:51.653Z,47.32
2019-04-22T14:56:40.466Z,47.97
2019-04-22T14:58:42.766Z,48.48
2019-04-22T15:00:44.314Z,44.97
2019-04-22T15:02:46.035Z,46.29
2019-04-22T15:04:48.031Z,46.90
2019-04-22T15:06:50.286Z,46.72
2019-04-22T15:08:51.234Z,46.87
2019-04-22T15:10:51.848Z,47.10
2019-04-22T15:12:56.714Z,47.73
2019-04-22T15:14:55.479Z,46.88
2019-04-22T15:17:13.041Z,47.36
2019-04-22T15:19:13.673Z,46.27
2019-04-22T15:21:14.910Z,47.27
2019-04-22T15:23:16.874Z,47.74
2019-04-22T15:25:18.742Z,47.97
2019-04-22T15:27:20.319Z,47.95
2019-04-22T15:29:21.480Z,47.83
2019-04-22T15:31:23.674Z,47.88
2019-04-22T15:33:25.651Z,47.75
2019-04-22T15:35:27.261Z,47.74
2019-04-22T15:37:28.272Z,47.15
2019-04-22T15:39:31.307Z,46.24
2019-04-22T15:41:32.572Z,47.20
2019-04-22T15:43:35.118Z,47.23
2019-04-22T15:45:34.979Z,46.18
2019-04-22T15:47:37.406Z,46.50
2019-04-22T15:49:38.180Z,45.93
2019-04-22T15:51:40.860Z,46.68
2019-04-22T15:53:41.226Z,46.35
2019-04-22T15:55:42.887Z,46.16
2019-04-22T15:57:45.675Z,45.84
2019-04-22T16:00:03.805Z,45.98
2019-04-22T16:01:48.619Z,46.16
2019-04-22T16:03:50.334Z,46.10
2019-04-22T16:05:52.203Z,45.86
2019-04-22T16:07:54.901Z,45.92
2019-04-22T16:09:55.095Z,45.70
2019-04-22T16:12:09.442Z,45.80
2019-04-22T16:13:58.330Z,46.05
2019-04-22T16:16:00.654Z,46.51
2019-04-22T16:18:03.343Z,45.66
2019-04-22T16:20:03.689Z,46.64
2019-04-22T16:22:09.360Z,46.36
2019-04-22T16:24:09.068Z,46.01
2019-04-22T16:26:20.194Z,46.46
2019-04-22T16:28:21.613Z,47.75
2019-04-22T16:30:23.509Z,47.40
2019-04-22T16:32:25.438Z,46.75
2019-04-22T16:34:27.220Z,46.61
2019-04-22T16:36:29.016Z,47.08
2019-04-22T16:38:31.008Z,48.38
2019-04-22T16:40:32.582Z,47.41
2019-04-22T16:42:41.309Z,48.14
2019-04-22T16:44:36.434Z,48.38
2019-04-22T16:46:37.443Z,48.45
2019-04-22T16:48:38.267Z,48.50
2019-04-22T16:50:42.806Z,48.06
2019-04-22T16:52:41.835Z,48.24
2019-04-22T16:54:44.490Z,48.40
2019-04-22T16:56:45.764Z,47.01
2019-04-22T16:58:46.672Z,45.02
2019-04-22T17:00:49.687Z,45.26
2019-04-22T17:03:04.898Z,42.43
2019-04-22T17:05:09.384Z,42.06
2019-04-22T17:07:11.220Z,41.96
2019-04-22T17:09:14.177Z,43.59
2019-04-22T17:11:13.657Z,44.20
2019-04-22T17:13:20.738Z,43.82
2019-04-22T17:15:18.573Z,44.41
2019-04-22T17:17:18.462Z,45.72
2019-04-22T17:19:21.531Z,45.97
2019-04-22T17:21:21.811Z,45.53
2019-04-22T17:23:23.445Z,45.64
2019-04-22T17:25:26.486Z,45.60
2019-04-22T17:27:26.789Z,45.80
2019-04-22T17:29:28.368Z,45.85
2019-04-22T17:31:31.051Z,45.98
2019-04-22T17:33:32.784Z,45.99
2019-04-22T17:35:34.047Z,46.12
2019-04-22T17:37:37.303Z,46.48
2019-04-22T17:39:49.200Z,46.42
2019-04-22T17:41:55.362Z,46.33
2019-04-22T17:44:04.859Z,46.75
2019-04-22T17:46:07.333Z,47.44
2019-04-22T17:48:19.447Z,48.36
2019-04-22T17:50:20.277Z,46.20
2019-04-22T17:52:21.096Z,46.30
2019-04-22T17:54:19.187Z,46.25
2019-04-22T17:56:27.949Z,46.17
2019-04-22T17:58:29.334Z,46.19
2019-04-22T18:00:25.469Z,46.31
2019-04-22T18:02:25.016Z,46.30
2019-04-22T18:04:10.478Z,46.08
2019-04-22T18:06:26.828Z,46.92
2019-04-22T18:08:36.637Z,46.27
2019-04-22T18:10:35.647Z,46.03
2019-04-22T18:12:44.211Z,47.16
2019-04-22T18:16:43.459Z,46.45
2019-04-22T18:18:43.609Z,46.16
2019-04-22T18:20:39.459Z,46.18
2019-04-22T18:22:39.599Z,46.33
2019-04-22T18:24:40.598Z,46.39
2019-04-22T18:26:48.254Z,46.70
2019-04-22T18:28:54.068Z,47.05
2019-04-22T18:30:44.622Z,46.94
2019-04-22T18:32:50.688Z,47.43
2019-04-22T18:34:44.558Z,47.48
2019-04-22T18:36:54.131Z,47.28
2019-04-22T18:39:04.743Z,46.78
2019-04-22T18:40:59.663Z,47.75
2019-04-22T18:43:07.396Z,47.75
2019-04-22T18:45:12.756Z,47.18
2019-04-22T18:47:01.331Z,47.17
2019-04-22T18:49:06.864Z,47.71
2019-04-22T18:51:24.947Z,47.34
2019-04-22T18:53:30.085Z,47.88
2019-04-22T18:55:26.809Z,48.18
2019-04-22T18:57:27.341Z,47.36
2019-04-22T18:59:18.480Z,48.37
2019-04-22T19:01:13.889Z,47.25
2019-04-22T19:03:21.660Z,47.32
2019-04-22T19:05:26.525Z,47.59
2019-04-22T19:07:42.406Z,47.48
2019-04-22T19:09:48.349Z,46.02
2019-04-22T19:11:52.175Z,47.76
2019-04-22T19:15:54.370Z,46.83
2019-04-22T19:17:55.157Z,46.63
2019-04-22T19:19:56.042Z,46.56
2019-04-22T19:21:55.847Z,46.63
2019-04-22T19:23:58.453Z,46.81
2019-04-22T19:25:59.083Z,46.77
2019-04-22T19:28:10.130Z,46.89
2019-04-22T19:30:07.479Z,47.07
2019-04-22T19:32:01.957Z,47.06
2019-04-22T19:34:04.581Z,47.14
2019-04-22T19:36:10.970Z,48.05
2019-04-22T19:37:59.871Z,43.08
2019-04-22T19:40:30.344Z,46.99
2019-04-22T19:42:21.909Z,46.68
2019-04-22T19:44:16.002Z,45.03
2019-04-22T19:46:16.018Z,45.34
2019-04-22T19:48:30.766Z,44.00
2019-04-22T19:50:23.202Z,43.58
2019-04-22T19:52:24.518Z,42.57
2019-04-22T19:54:19.219Z,43.03
2019-04-22T19:56:17.598Z,42.73
2019-04-22T19:58:24.106Z,42.10
2019-04-22T20:00:22.894Z,41.63
2019-04-22T20:02:33.087Z,41.08
2019-04-22T20:04:40.021Z,41.37
2019-04-22T20:06:33.543Z,41.23
2019-04-22T20:08:35.236Z,42.22
2019-04-22T20:10:40.199Z,42.87
2019-04-22T20:12:39.853Z,43.17
2019-04-22T20:14:41.582Z,43.38
2019-04-22T20:16:39.949Z,43.72
2019-04-22T20:18:51.924Z,43.70
2019-04-22T20:20:54.064Z,43.81
2019-04-22T20:22:44.903Z,43.96
2019-04-22T20:24:43.393Z,44.17
2019-04-22T20:26:56.493Z,44.36
2019-04-22T20:28:52.487Z,44.86
2019-04-22T20:30:56.208Z,44.72
2019-04-22T20:32:52.591Z,45.33
2019-04-22T20:35:04.382Z,44.68
2019-04-22T20:38:59.410Z,44.54
2019-04-22T20:41:01.401Z,44.61
2019-04-22T20:43:10.471Z,45.20
2019-04-22T20:45:10.325Z,45.02
2019-04-22T20:47:10.585Z,45.12
2019-04-22T20:49:11.671Z,45.28
2019-04-22T20:51:12.476Z,45.36
2019-04-22T20:53:18.965Z,45.55
2019-04-22T20:55:13.663Z,45.50
2019-04-22T20:57:15.363Z,46.38
2019-04-22T20:59:18.069Z,45.96
2019-04-22T21:01:11.641Z,45.30
2019-04-22T21:03:13.664Z,46.94
2019-04-22T21:05:22.137Z,47.05
2019-04-22T21:07:23.803Z,47.31
2019-04-22T21:09:27.312Z,47.55
2019-04-22T21:11:29.683Z,48.00
2019-04-22T21:13:22.896Z,48.09
2019-04-22T21:15:36.930Z,48.17
2019-04-22T21:17:36.605Z,48.42
2019-04-22T21:19:41.792Z,48.51
2019-04-22T21:21:40.903Z,48.53
2019-04-22T21:23:33.956Z,49.04
2019-04-22T21:25:34.067Z,48.92
2019-04-22T21:27:45.335Z,49.08
2019-04-22T21:29:40.596Z,49.51
2019-04-22T21:31:48.248Z,49.26
2019-04-22T21:33:48.768Z,49.95
2019-04-22T21:36:01.665Z,49.83
2019-04-22T21:37:57.876Z,49.53
2019-04-22T21:39:46.424Z,49.69
2019-04-22T21:41:53.081Z,49.77
2019-04-22T21:43:59.545Z,49.92
2019-04-22T21:46:04.531Z,49.90
2019-04-22T21:48:18.229Z,50.25
2019-04-22T21:50:26.120Z,50.36
2019-04-22T21:52:07.955Z,50.50
2019-04-22T21:54:10.038Z,50.82
2019-04-22T21:56:25.390Z,50.29
2019-04-22T21:58:27.668Z,50.57
2019-04-22T22:00:37.460Z,50.84
2019-04-22T22:04:24.803Z,51.12
2019-04-22T22:06:23.558Z,51.50
2019-04-22T22:08:35.146Z,51.48
2019-04-22T22:10:33.905Z,51.37
2019-04-22T22:12:39.383Z,51.60
2019-04-22T22:14:31.677Z,51.50
2019-04-22T22:16:32.026Z,51.74
2019-04-22T22:18:34.972Z,51.66
2019-04-22T22:20:50.944Z,51.73
2019-04-22T22:24:45.172Z,51.65
2019-04-22T22:26:54.260Z,51.95
2019-04-22T22:30:55.360Z,52.06
2019-04-22T22:32:55.117Z,52.45
2019-04-22T22:34:56.876Z,52.52
2019-04-22T22:36:50.603Z,52.45
2019-04-22T22:38:56.157Z,52.75
2019-04-22T22:40:41.562Z,52.97
2019-04-22T22:42:44.457Z,52.53
2019-04-22T22:44:46.780Z,52.24
2019-04-22T22:46:59.022Z,52.59
2019-04-22T22:49:14.973Z,52.41
2019-04-22T22:51:04.289Z,52.69
2019-04-22T22:55:10.748Z,52.49
2019-04-22T22:59:18.008Z,52.21
2019-04-22T23:01:19.889Z,52.22
2019-04-22T23:03:40.009Z,52.43
2019-04-22T23:05:26.028Z,52.37
2019-04-22T23:07:22.739Z,52.50
2019-04-22T23:09:22.600Z,52.58
2019-04-22T23:11:34.417Z,52.72
2019-04-22T23:15:25.715Z,52.78
2019-04-22T23:17:16.213Z,52.83
2019-04-22T23:19:11.094Z,52.84
2019-04-22T23:21:19.343Z,52.73
2019-04-22T23:23:36.007Z,52.61
2019-04-22T23:25:34.006Z,52.73
2019-04-22T23:27:51.431Z,52.72
2019-04-22T23:29:47.028Z,52.89
2019-04-22T23:31:46.928Z,52.94
2019-04-22T23:33:54.657Z,52.95
2019-04-22T23:36:06.389Z,53.00
2019-04-22T23:38:13.676Z,52.88
2019-04-22T23:40:24.376Z,53.00
2019-04-22T23:44:17.769Z,53.16
2019-04-22T23:46:19.761Z,53.31
2019-04-22T23:48:17.043Z,53.35
2019-04-22T23:50:26.469Z,53.38
2019-04-22T23:52:24.404Z,53.52
2019-04-22T23:54:35.108Z,53.55
2019-04-22T23:56:25.127Z,53.27
2019-04-22T23:58:41.696Z,53.32
